sensor_id;sensor_type;location;lat;lon;timestamp;temperature;humidity
7254;DHT22;4060;49.186;9.226;2023-04-25T00:01:37;15.40;57.00
7254;DHT22;4060;49.186;9.226;2023-04-25T00:04:12;15.40;57.00
7254;DHT22;4060;49.186;9.226;2023-04-25T00:06:42;15.40;57.00
7254;DHT22;4060;49.186;9.226;2023-04-25T00:09:12;15.40;57.10
7254;DHT22;4060;49.186;9.226;2023-04-25T00:11:44;15.40;57.10
7254;DHT22;4060;49.186;9.226;2023-04-25T00:14:13;15.40;57.10
7254;DHT22;4060;49.186;9.226;2023-04-25T00:16:44;15.40;57.10
7254;DHT22;4060;49.186;9.226;2023-04-25T00:19:13;15.30;57.10
7254;DHT22;4060;49.186;9.226;2023-04-25T00:21:43;15.30;57.10
7254;DHT22;4060;49.186;9.226;2023-04-25T00:24:13;15.30;57.10
7254;DHT22;4060;49.186;9.226;2023-04-25T00:26:45;15.30;57.20
7254;DHT22;4060;49.186;9.226;2023-04-25T00:29:14;15.30;57.00
7254;DHT22;4060;49.186;9.226;2023-04-25T00:31:44;15.30;57.10
7254;DHT22;4060;49.186;9.226;2023-04-25T00:34:13;15.30;57.10
7254;DHT22;4060;49.186;9.226;2023-04-25T00:36:43;15.30;57.10
7254;DHT22;4060;49.186;9.226;2023-04-25T00:39:13;15.30;57.10
7254;DHT22;4060;49.186;9.226;2023-04-25T00:41:45;15.30;57.10
7254;DHT22;4060;49.186;9.226;2023-04-25T00:44:15;15.20;57.10
7254;DHT22;4060;49.186;9.226;2023-04-25T00:46:47;15.20;57.10
7254;DHT22;4060;49.186;9.226;2023-04-25T00:49:17;15.20;57.10
7254;DHT22;4060;49.186;9.226;2023-04-25T00:51:46;15.20;57.10
7254;DHT22;4060;49.186;9.226;2023-04-25T00:54:16;15.20;57.10
7254;DHT22;4060;49.186;9.226;2023-04-25T00:56:48;15.20;57.00
7254;DHT22;4060;49.186;9.226;2023-04-25T00:59:19;15.20;57.00
7254;DHT22;4060;49.186;9.226;2023-04-25T01:01:49;15.20;57.00
7254;DHT22;4060;49.186;9.226;2023-04-25T01:04:18;15.10;57.00
7254;DHT22;4060;49.186;9.226;2023-04-25T01:06:48;15.10;57.00
7254;DHT22;4060;49.186;9.226;2023-04-25T01:09:18;15.10;57.00
7254;DHT22;4060;49.186;9.226;2023-04-25T01:11:51;15.10;57.00
7254;DHT22;4060;49.186;9.226;2023-04-25T01:14:20;15.10;57.00
7254;DHT22;4060;49.186;9.226;2023-04-25T01:16:50;15.10;57.00
7254;DHT22;4060;49.186;9.226;2023-04-25T01:19:20;15.00;57.00
7254;DHT22;4060;49.186;9.226;2023-04-25T01:21:52;15.00;56.90
7254;DHT22;4060;49.186;9.226;2023-04-25T01:24:22;15.00;57.00
7254;DHT22;4060;49.186;9.226;2023-04-25T01:26:51;15.00;57.00
7254;DHT22;4060;49.186;9.226;2023-04-25T01:29:23;15.00;57.00
7254;DHT22;4060;49.186;9.226;2023-04-25T01:31:53;15.00;57.00
7254;DHT22;4060;49.186;9.226;2023-04-25T01:34:23;15.00;57.00
7254;DHT22;4060;49.186;9.226;2023-04-25T01:36:54;15.00;57.10
7254;DHT22;4060;49.186;9.226;2023-04-25T01:39:24;15.00;57.00
7254;DHT22;4060;49.186;9.226;2023-04-25T01:41:53;15.00;57.00
7254;DHT22;4060;49.186;9.226;2023-04-25T01:44:23;15.00;57.00
7254;DHT22;4060;49.186;9.226;2023-04-25T01:46:53;15.00;57.00
7254;DHT22;4060;49.186;9.226;2023-04-25T01:49:22;14.90;57.00
7254;DHT22;4060;49.186;9.226;2023-04-25T01:51:55;14.90;57.00
7254;DHT22;4060;49.186;9.226;2023-04-25T01:54:25;14.90;57.00
7254;DHT22;4060;49.186;9.226;2023-04-25T01:56:58;14.90;57.00
7254;DHT22;4060;49.186;9.226;2023-04-25T01:59:27;14.90;57.10
7254;DHT22;4060;49.186;9.226;2023-04-25T02:01:57;14.90;57.00
7254;DHT22;4060;49.186;9.226;2023-04-25T02:04:26;14.90;57.10
7254;DHT22;4060;49.186;9.226;2023-04-25T02:06:58;14.90;57.10
7254;DHT22;4060;49.186;9.226;2023-04-25T02:09:27;14.80;57.10
7254;DHT22;4060;49.186;9.226;2023-04-25T02:11:57;14.80;57.10
7254;DHT22;4060;49.186;9.226;2023-04-25T02:14:27;14.80;57.10
7254;DHT22;4060;49.186;9.226;2023-04-25T02:16:57;14.80;57.10
7254;DHT22;4060;49.186;9.226;2023-04-25T02:19:26;14.80;57.10
7254;DHT22;4060;49.186;9.226;2023-04-25T02:21:58;14.80;57.10
7254;DHT22;4060;49.186;9.226;2023-04-25T02:24:27;14.80;57.10
7254;DHT22;4060;49.186;9.226;2023-04-25T02:26:57;14.80;57.10
7254;DHT22;4060;49.186;9.226;2023-04-25T02:29:26;14.80;57.20
7254;DHT22;4060;49.186;9.226;2023-04-25T02:31:56;14.80;57.20
7254;DHT22;4060;49.186;9.226;2023-04-25T02:34:26;14.70;57.10
7254;DHT22;4060;49.186;9.226;2023-04-25T02:36:58;14.70;57.10
7254;DHT22;4060;49.186;9.226;2023-04-25T02:39:28;14.70;57.60
7254;DHT22;4060;49.186;9.226;2023-04-25T02:41:57;14.70;57.10
7254;DHT22;4060;49.186;9.226;2023-04-25T02:44:28;14.70;57.10
7254;DHT22;4060;49.186;9.226;2023-04-25T02:46:58;14.70;57.20
7254;DHT22;4060;49.186;9.226;2023-04-25T02:49:28;14.70;57.20
7254;DHT22;4060;49.186;9.226;2023-04-25T02:51:59;14.70;57.20
7254;DHT22;4060;49.186;9.226;2023-04-25T02:54:30;14.70;57.20
7254;DHT22;4060;49.186;9.226;2023-04-25T02:57:00;14.70;57.20
7254;DHT22;4060;49.186;9.226;2023-04-25T02:59:32;14.70;57.20
7254;DHT22;4060;49.186;9.226;2023-04-25T03:02:02;14.70;57.30
7254;DHT22;4060;49.186;9.226;2023-04-25T03:04:31;14.70;57.30
7254;DHT22;4060;49.186;9.226;2023-04-25T03:07:03;14.70;57.30
7254;DHT22;4060;49.186;9.226;2023-04-25T03:09:32;14.60;57.20
7254;DHT22;4060;49.186;9.226;2023-04-25T03:12:02;14.60;57.20
7254;DHT22;4060;49.186;9.226;2023-04-25T03:14:32;14.60;57.20
7254;DHT22;4060;49.186;9.226;2023-04-25T03:17:01;14.60;57.30
7254;DHT22;4060;49.186;9.226;2023-04-25T03:19:30;14.60;57.30
7254;DHT22;4060;49.186;9.226;2023-04-25T03:22:03;14.60;57.30
7254;DHT22;4060;49.186;9.226;2023-04-25T03:24:32;14.60;57.30
7254;DHT22;4060;49.186;9.226;2023-04-25T03:27:02;14.60;57.30
7254;DHT22;4060;49.186;9.226;2023-04-25T03:29:31;14.60;57.30
7254;DHT22;4060;49.186;9.226;2023-04-25T03:32:01;14.60;57.40
7254;DHT22;4060;49.186;9.226;2023-04-25T03:34:30;14.60;57.40
7254;DHT22;4060;49.186;9.226;2023-04-25T03:37:02;14.60;57.40
7254;DHT22;4060;49.186;9.226;2023-04-25T03:39:31;14.60;57.40
7254;DHT22;4060;49.186;9.226;2023-04-25T03:42:01;14.60;57.50
7254;DHT22;4060;49.186;9.226;2023-04-25T03:44:31;14.60;57.40
7254;DHT22;4060;49.186;9.226;2023-04-25T03:47:00;14.50;57.40
7254;DHT22;4060;49.186;9.226;2023-04-25T03:49:30;14.50;57.50
7254;DHT22;4060;49.186;9.226;2023-04-25T03:52:00;14.50;57.50
7254;DHT22;4060;49.186;9.226;2023-04-25T03:54:32;14.50;57.50
7254;DHT22;4060;49.186;9.226;2023-04-25T03:57:01;14.50;57.50
7254;DHT22;4060;49.186;9.226;2023-04-25T03:59:30;14.50;57.50
7254;DHT22;4060;49.186;9.226;2023-04-25T04:02:00;14.50;57.50
7254;DHT22;4060;49.186;9.226;2023-04-25T04:04:29;14.50;57.50
7254;DHT22;4060;49.186;9.226;2023-04-25T04:06:59;14.50;57.60
7254;DHT22;4060;49.186;9.226;2023-04-25T04:09:30;14.50;57.60
7254;DHT22;4060;49.186;9.226;2023-04-25T04:12:00;14.50;57.60
7254;DHT22;4060;49.186;9.226;2023-04-25T04:14:30;14.50;57.70
7254;DHT22;4060;49.186;9.226;2023-04-25T04:17:00;14.50;57.70
7254;DHT22;4060;49.186;9.226;2023-04-25T04:19:29;14.50;57.70
7254;DHT22;4060;49.186;9.226;2023-04-25T04:21:59;14.50;57.70
7254;DHT22;4060;49.186;9.226;2023-04-25T04:24:31;14.40;57.70
7254;DHT22;4060;49.186;9.226;2023-04-25T04:27:00;14.40;57.70
7254;DHT22;4060;49.186;9.226;2023-04-25T04:29:30;14.40;57.80
7254;DHT22;4060;49.186;9.226;2023-04-25T04:31:59;14.40;57.80
7254;DHT22;4060;49.186;9.226;2023-04-25T04:34:30;14.40;57.90
7254;DHT22;4060;49.186;9.226;2023-04-25T04:37:01;14.40;57.80
7254;DHT22;4060;49.186;9.226;2023-04-25T04:39:38;14.40;57.90
7254;DHT22;4060;49.186;9.226;2023-04-25T04:42:08;14.40;57.90
7254;DHT22;4060;49.186;9.226;2023-04-25T04:44:38;14.40;57.90
7254;DHT22;4060;49.186;9.226;2023-04-25T04:47:07;14.40;57.90
7254;DHT22;4060;49.186;9.226;2023-04-25T04:49:38;14.40;58.00
7254;DHT22;4060;49.186;9.226;2023-04-25T04:52:08;14.40;58.00
7254;DHT22;4060;49.186;9.226;2023-04-25T04:54:39;14.40;58.10
7254;DHT22;4060;49.186;9.226;2023-04-25T04:57:09;14.30;58.00
7254;DHT22;4060;49.186;9.226;2023-04-25T04:59:38;14.30;58.10
7254;DHT22;4060;49.186;9.226;2023-04-25T05:02:08;14.30;58.10
7254;DHT22;4060;49.186;9.226;2023-04-25T05:04:37;14.30;58.10
7254;DHT22;4060;49.186;9.226;2023-04-25T05:07:06;14.30;58.10
7254;DHT22;4060;49.186;9.226;2023-04-25T05:09:41;14.30;58.20
7254;DHT22;4060;49.186;9.226;2023-04-25T05:12:11;14.30;58.20
7254;DHT22;4060;49.186;9.226;2023-04-25T05:14:41;14.30;58.30
7254;DHT22;4060;49.186;9.226;2023-04-25T05:17:10;14.30;58.30
7254;DHT22;4060;49.186;9.226;2023-04-25T05:19:40;14.30;58.30
7254;DHT22;4060;49.186;9.226;2023-04-25T05:22:10;14.30;58.30
7254;DHT22;4060;49.186;9.226;2023-04-25T05:24:41;14.30;58.40
7254;DHT22;4060;49.186;9.226;2023-04-25T05:27:10;14.30;58.90
7254;DHT22;4060;49.186;9.226;2023-04-25T05:29:39;14.20;58.40
7254;DHT22;4060;49.186;9.226;2023-04-25T05:32:09;14.20;58.40
7254;DHT22;4060;49.186;9.226;2023-04-25T05:34:38;14.20;58.40
7254;DHT22;4060;49.186;9.226;2023-04-25T05:37:09;14.20;58.40
7254;DHT22;4060;49.186;9.226;2023-04-25T05:39:38;14.20;58.40
7254;DHT22;4060;49.186;9.226;2023-04-25T05:42:09;14.20;58.50
7254;DHT22;4060;49.186;9.226;2023-04-25T05:44:39;14.20;58.50
7254;DHT22;4060;49.186;9.226;2023-04-25T05:47:08;14.20;58.50
7254;DHT22;4060;49.186;9.226;2023-04-25T05:49:38;14.20;58.50
7254;DHT22;4060;49.186;9.226;2023-04-25T05:52:07;14.20;58.60
7254;DHT22;4060;49.186;9.226;2023-04-25T05:54:39;14.20;58.60
7254;DHT22;4060;49.186;9.226;2023-04-25T05:57:20;14.20;58.60
7254;DHT22;4060;49.186;9.226;2023-04-25T05:59:50;14.20;58.70
7254;DHT22;4060;49.186;9.226;2023-04-25T06:02:20;14.20;58.70
7254;DHT22;4060;49.186;9.226;2023-04-25T06:04:50;14.10;58.60
7254;DHT22;4060;49.186;9.226;2023-04-25T06:07:21;14.20;58.70
7254;DHT22;4060;49.186;9.226;2023-04-25T06:09:51;14.20;58.70
7254;DHT22;4060;49.186;9.226;2023-04-25T06:12:23;14.10;58.70
7254;DHT22;4060;49.186;9.226;2023-04-25T06:14:52;14.20;58.90
7254;DHT22;4060;49.186;9.226;2023-04-25T06:17:22;14.10;58.70
7254;DHT22;4060;49.186;9.226;2023-04-25T06:19:52;14.10;58.80
7254;DHT22;4060;49.186;9.226;2023-04-25T06:22:23;14.10;59.30
7254;DHT22;4060;49.186;9.226;2023-04-25T06:24:52;14.10;58.80
7254;DHT22;4060;49.186;9.226;2023-04-25T06:27:27;14.10;58.80
7254;DHT22;4060;49.186;9.226;2023-04-25T06:29:56;14.10;58.90
7254;DHT22;4060;49.186;9.226;2023-04-25T06:32:26;14.10;58.90
7254;DHT22;4060;49.186;9.226;2023-04-25T06:34:57;14.10;58.90
7254;DHT22;4060;49.186;9.226;2023-04-25T06:37:26;14.10;59.00
7254;DHT22;4060;49.186;9.226;2023-04-25T06:39:56;14.10;59.00
7254;DHT22;4060;49.186;9.226;2023-04-25T06:42:30;14.10;59.00
7254;DHT22;4060;49.186;9.226;2023-04-25T06:44:59;14.10;59.10
7254;DHT22;4060;49.186;9.226;2023-04-25T06:47:29;14.10;59.00
7254;DHT22;4060;49.186;9.226;2023-04-25T06:49:58;14.10;59.10
7254;DHT22;4060;49.186;9.226;2023-04-25T06:52:28;14.10;59.10
7254;DHT22;4060;49.186;9.226;2023-04-25T06:54:57;14.10;59.10
7254;DHT22;4060;49.186;9.226;2023-04-25T06:57:28;14.10;59.20
7254;DHT22;4060;49.186;9.226;2023-04-25T06:59:58;14.10;59.20
7254;DHT22;4060;49.186;9.226;2023-04-25T07:02:33;14.10;59.20
7254;DHT22;4060;49.186;9.226;2023-04-25T07:05:03;14.10;59.30
7254;DHT22;4060;49.186;9.226;2023-04-25T07:07:33;14.10;59.30
7254;DHT22;4060;49.186;9.226;2023-04-25T07:10:03;14.10;59.30
7254;DHT22;4060;49.186;9.226;2023-04-25T07:12:35;14.10;59.30
7254;DHT22;4060;49.186;9.226;2023-04-25T07:15:05;14.10;59.40
7254;DHT22;4060;49.186;9.226;2023-04-25T07:17:37;14.10;59.40
7254;DHT22;4060;49.186;9.226;2023-04-25T07:20:08;14.10;59.40
7254;DHT22;4060;49.186;9.226;2023-04-25T07:22:37;14.10;59.50
7254;DHT22;4060;49.186;9.226;2023-04-25T07:25:08;14.10;59.40
7254;DHT22;4060;49.186;9.226;2023-04-25T07:27:39;14.10;59.50
7254;DHT22;4060;49.186;9.226;2023-04-25T07:30:09;14.10;59.50
7254;DHT22;4060;49.186;9.226;2023-04-25T07:32:40;14.10;59.60
7254;DHT22;4060;49.186;9.226;2023-04-25T07:35:10;14.10;59.60
7254;DHT22;4060;49.186;9.226;2023-04-25T07:37:40;14.10;59.60
7254;DHT22;4060;49.186;9.226;2023-04-25T07:40:10;14.10;59.60
7254;DHT22;4060;49.186;9.226;2023-04-25T07:42:41;14.10;59.60
7254;DHT22;4060;49.186;9.226;2023-04-25T07:45:11;14.10;59.60
7254;DHT22;4060;49.186;9.226;2023-04-25T07:47:40;14.10;59.70
7254;DHT22;4060;49.186;9.226;2023-04-25T07:50:10;14.10;59.60
7254;DHT22;4060;49.186;9.226;2023-04-25T07:52:40;14.20;59.70
7254;DHT22;4060;49.186;9.226;2023-04-25T07:55:10;14.10;59.70
7254;DHT22;4060;49.186;9.226;2023-04-25T07:57:41;14.10;59.70
7254;DHT22;4060;49.186;9.226;2023-04-25T08:00:11;14.20;59.80
7254;DHT22;4060;49.186;9.226;2023-04-25T08:02:42;14.20;59.90
7254;DHT22;4060;49.186;9.226;2023-04-25T08:05:11;14.20;59.90
7254;DHT22;4060;49.186;9.226;2023-04-25T08:07:42;14.10;59.80
7254;DHT22;4060;49.186;9.226;2023-04-25T08:10:12;14.20;59.90
7254;DHT22;4060;49.186;9.226;2023-04-25T08:12:44;14.20;59.90
7254;DHT22;4060;49.186;9.226;2023-04-25T08:15:14;14.20;59.90
7254;DHT22;4060;49.186;9.226;2023-04-25T08:17:44;14.20;59.90
7254;DHT22;4060;49.186;9.226;2023-04-25T08:20:13;14.20;60.00
7254;DHT22;4060;49.186;9.226;2023-04-25T08:22:43;14.20;59.90
7254;DHT22;4060;49.186;9.226;2023-04-25T08:25:13;14.20;60.00
7254;DHT22;4060;49.186;9.226;2023-04-25T08:27:44;14.20;60.00
7254;DHT22;4060;49.186;9.226;2023-04-25T08:30:14;14.20;60.00
7254;DHT22;4060;49.186;9.226;2023-04-25T08:32:44;14.20;60.10
7254;DHT22;4060;49.186;9.226;2023-04-25T08:35:13;14.20;60.10
7254;DHT22;4060;49.186;9.226;2023-04-25T08:37:44;14.30;60.30
7254;DHT22;4060;49.186;9.226;2023-04-25T08:40:15;14.20;60.10
7254;DHT22;4060;49.186;9.226;2023-04-25T08:42:47;14.30;60.30
7254;DHT22;4060;49.186;9.226;2023-04-25T08:45:18;14.20;60.30
7254;DHT22;4060;49.186;9.226;2023-04-25T08:47:48;14.30;60.40
7254;DHT22;4060;49.186;9.226;2023-04-25T08:50:22;14.30;60.40
7254;DHT22;4060;49.186;9.226;2023-04-25T08:52:54;14.30;60.40
7254;DHT22;4060;49.186;9.226;2023-04-25T08:55:29;14.30;60.40
7254;DHT22;4060;49.186;9.226;2023-04-25T08:58:01;14.30;60.30
7254;DHT22;4060;49.186;9.226;2023-04-25T09:00:30;14.30;60.40
7254;DHT22;4060;49.186;9.226;2023-04-25T09:03:00;14.40;60.50
7254;DHT22;4060;49.186;9.226;2023-04-25T09:05:31;14.40;60.40
7254;DHT22;4060;49.186;9.226;2023-04-25T09:08:02;14.40;60.30
7254;DHT22;4060;49.186;9.226;2023-04-25T09:10:33;14.30;60.10
7254;DHT22;4060;49.186;9.226;2023-04-25T09:13:06;14.40;60.20
7254;DHT22;4060;49.186;9.226;2023-04-25T09:15:49;14.30;60.10
7254;DHT22;4060;49.186;9.226;2023-04-25T09:18:25;14.30;60.20
7254;DHT22;4060;49.186;9.226;2023-04-25T09:20:56;14.40;60.30
7254;DHT22;4060;49.186;9.226;2023-04-25T09:23:25;14.40;60.30
7254;DHT22;4060;49.186;9.226;2023-04-25T09:25:55;14.40;60.40
7254;DHT22;4060;49.186;9.226;2023-04-25T09:28:28;14.30;60.20
7254;DHT22;4060;49.186;9.226;2023-04-25T09:30:58;14.30;60.30
7254;DHT22;4060;49.186;9.226;2023-04-25T09:33:29;14.30;60.30
7254;DHT22;4060;49.186;9.226;2023-04-25T09:36:03;14.30;60.30
7254;DHT22;4060;49.186;9.226;2023-04-25T09:38:41;14.30;60.30
7254;DHT22;4060;49.186;9.226;2023-04-25T09:41:11;14.30;60.30
7254;DHT22;4060;49.186;9.226;2023-04-25T09:43:46;14.30;60.20
7254;DHT22;4060;49.186;9.226;2023-04-25T09:46:15;14.30;60.30
7254;DHT22;4060;49.186;9.226;2023-04-25T09:48:49;14.40;60.40
7254;DHT22;4060;49.186;9.226;2023-04-25T09:51:20;14.40;60.50
7254;DHT22;4060;49.186;9.226;2023-04-25T09:53:57;14.30;60.40
7254;DHT22;4060;49.186;9.226;2023-04-25T09:56:31;14.40;60.60
7254;DHT22;4060;49.186;9.226;2023-04-25T09:59:06;14.40;60.70
7254;DHT22;4060;49.186;9.226;2023-04-25T10:01:38;14.40;60.90
7254;DHT22;4060;49.186;9.226;2023-04-25T10:04:12;14.40;61.00
7254;DHT22;4060;49.186;9.226;2023-04-25T10:06:49;14.40;62.00
7254;DHT22;4060;49.186;9.226;2023-04-25T10:09:21;14.40;61.40
7254;DHT22;4060;49.186;9.226;2023-04-25T10:11:53;14.40;61.40
7254;DHT22;4060;49.186;9.226;2023-04-25T10:14:25;14.50;61.70
7254;DHT22;4060;49.186;9.226;2023-04-25T10:16:57;14.50;61.80
7254;DHT22;4060;49.186;9.226;2023-04-25T10:19:28;14.50;61.90
7254;DHT22;4060;49.186;9.226;2023-04-25T10:22:11;14.60;62.20
7254;DHT22;4060;49.186;9.226;2023-04-25T10:24:42;14.60;62.40
7254;DHT22;4060;49.186;9.226;2023-04-25T10:27:13;14.60;62.30
7254;DHT22;4060;49.186;9.226;2023-04-25T10:29:45;14.60;62.40
7254;DHT22;4060;49.186;9.226;2023-04-25T10:32:31;14.60;62.40
7254;DHT22;4060;49.186;9.226;2023-04-25T10:35:12;14.70;62.40
7254;DHT22;4060;49.186;9.226;2023-04-25T10:38:04;14.70;62.40
7254;DHT22;4060;49.186;9.226;2023-04-25T10:40:34;14.70;62.40
7254;DHT22;4060;49.186;9.226;2023-04-25T10:43:35;14.70;62.30
7254;DHT22;4060;49.186;9.226;2023-04-25T10:46:17;14.80;62.60
7254;DHT22;4060;49.186;9.226;2023-04-25T10:48:51;14.80;62.40
7254;DHT22;4060;49.186;9.226;2023-04-25T10:51:22;14.80;62.50
7254;DHT22;4060;49.186;9.226;2023-04-25T10:54:00;14.80;62.50
7254;DHT22;4060;49.186;9.226;2023-04-25T10:56:30;14.90;62.60
7254;DHT22;4060;49.186;9.226;2023-04-25T10:59:07;14.90;62.60
7254;DHT22;4060;49.186;9.226;2023-04-25T11:01:40;14.90;63.50
7254;DHT22;4060;49.186;9.226;2023-04-25T11:04:22;14.90;63.60
7254;DHT22;4060;49.186;9.226;2023-04-25T11:07:11;15.00;63.10
7254;DHT22;4060;49.186;9.226;2023-04-25T11:09:45;15.00;63.00
7254;DHT22;4060;49.186;9.226;2023-04-25T11:12:15;15.00;62.90
7254;DHT22;4060;49.186;9.226;2023-04-25T11:14:45;15.00;62.90
7254;DHT22;4060;49.186;9.226;2023-04-25T11:17:17;15.00;62.80
7254;DHT22;4060;49.186;9.226;2023-04-25T11:19:55;15.10;62.90
7254;DHT22;4060;49.186;9.226;2023-04-25T11:22:27;15.10;63.00
7254;DHT22;4060;49.186;9.226;2023-04-25T11:24:57;15.10;62.90
7254;DHT22;4060;49.186;9.226;2023-04-25T11:27:27;15.10;63.10
7254;DHT22;4060;49.186;9.226;2023-04-25T11:29:57;15.10;63.10
7254;DHT22;4060;49.186;9.226;2023-04-25T11:32:29;15.10;63.10
7254;DHT22;4060;49.186;9.226;2023-04-25T11:34:58;15.20;63.20
7254;DHT22;4060;49.186;9.226;2023-04-25T11:37:29;15.20;63.20
7254;DHT22;4060;49.186;9.226;2023-04-25T11:39:59;15.20;63.20
7254;DHT22;4060;49.186;9.226;2023-04-25T11:42:28;15.20;63.00
7254;DHT22;4060;49.186;9.226;2023-04-25T11:44:58;15.20;62.90
7254;DHT22;4060;49.186;9.226;2023-04-25T11:47:32;15.20;62.80
7254;DHT22;4060;49.186;9.226;2023-04-25T11:50:02;15.20;62.70
7254;DHT22;4060;49.186;9.226;2023-04-25T11:52:39;15.20;62.60
7254;DHT22;4060;49.186;9.226;2023-04-25T11:55:12;15.30;62.60
7254;DHT22;4060;49.186;9.226;2023-04-25T11:57:43;15.20;62.40
7254;DHT22;4060;49.186;9.226;2023-04-25T12:00:14;15.30;62.40
7254;DHT22;4060;49.186;9.226;2023-04-25T12:02:46;15.20;62.20
7254;DHT22;4060;49.186;9.226;2023-04-25T12:05:16;15.30;62.30
7254;DHT22;4060;49.186;9.226;2023-04-25T12:07:47;15.30;62.30
7254;DHT22;4060;49.186;9.226;2023-04-25T12:10:18;15.20;62.10
7254;DHT22;4060;49.186;9.226;2023-04-25T12:12:48;15.20;62.10
7254;DHT22;4060;49.186;9.226;2023-04-25T12:15:24;15.30;62.10
7254;DHT22;4060;49.186;9.226;2023-04-25T12:17:57;15.30;62.00
7254;DHT22;4060;49.186;9.226;2023-04-25T12:20:27;15.30;61.90
7254;DHT22;4060;49.186;9.226;2023-04-25T12:22:58;15.30;61.80
7254;DHT22;4060;49.186;9.226;2023-04-25T12:25:38;15.30;61.80
7254;DHT22;4060;49.186;9.226;2023-04-25T12:28:12;15.30;61.70
7254;DHT22;4060;49.186;9.226;2023-04-25T12:30:58;15.30;61.50
7254;DHT22;4060;49.186;9.226;2023-04-25T12:33:33;15.30;61.50
7254;DHT22;4060;49.186;9.226;2023-04-25T12:36:04;15.30;61.50
7254;DHT22;4060;49.186;9.226;2023-04-25T12:38:38;15.30;61.70
7254;DHT22;4060;49.186;9.226;2023-04-25T12:41:09;15.30;61.60
7254;DHT22;4060;49.186;9.226;2023-04-25T12:43:39;15.30;61.50
7254;DHT22;4060;49.186;9.226;2023-04-25T12:46:09;15.40;61.50
7254;DHT22;4060;49.186;9.226;2023-04-25T12:48:41;15.40;61.40
7254;DHT22;4060;49.186;9.226;2023-04-25T12:51:15;15.40;61.30
7254;DHT22;4060;49.186;9.226;2023-04-25T12:53:45;15.40;61.20
7254;DHT22;4060;49.186;9.226;2023-04-25T12:56:17;15.40;61.10
7254;DHT22;4060;49.186;9.226;2023-04-25T12:58:47;15.50;61.10
7254;DHT22;4060;49.186;9.226;2023-04-25T13:01:17;15.50;60.90
7254;DHT22;4060;49.186;9.226;2023-04-25T13:03:51;15.50;60.80
7254;DHT22;4060;49.186;9.226;2023-04-25T13:06:21;15.50;60.50
7254;DHT22;4060;49.186;9.226;2023-04-25T13:08:52;15.50;60.30
7254;DHT22;4060;49.186;9.226;2023-04-25T13:11:27;15.50;60.30
7254;DHT22;4060;49.186;9.226;2023-04-25T13:13:57;15.50;60.00
7254;DHT22;4060;49.186;9.226;2023-04-25T13:16:27;15.50;60.00
7254;DHT22;4060;49.186;9.226;2023-04-25T13:18:59;15.60;60.10
7254;DHT22;4060;49.186;9.226;2023-04-25T13:21:31;15.60;60.10
7254;DHT22;4060;49.186;9.226;2023-04-25T13:24:01;15.60;60.10
7254;DHT22;4060;49.186;9.226;2023-04-25T13:26:31;15.60;59.90
7254;DHT22;4060;49.186;9.226;2023-04-25T13:29:04;15.60;59.80
7254;DHT22;4060;49.186;9.226;2023-04-25T13:31:34;15.60;59.70
7254;DHT22;4060;49.186;9.226;2023-04-25T13:34:08;15.60;59.50
7254;DHT22;4060;49.186;9.226;2023-04-25T13:36:39;15.70;59.40
7254;DHT22;4060;49.186;9.226;2023-04-25T13:39:10;15.70;59.20
7254;DHT22;4060;49.186;9.226;2023-04-25T13:41:41;15.70;59.00
7254;DHT22;4060;49.186;9.226;2023-04-25T13:44:11;15.70;58.80
7254;DHT22;4060;49.186;9.226;2023-04-25T13:46:41;15.70;58.70
7254;DHT22;4060;49.186;9.226;2023-04-25T13:49:13;15.70;58.80
7254;DHT22;4060;49.186;9.226;2023-04-25T13:51:43;15.70;58.60
7254;DHT22;4060;49.186;9.226;2023-04-25T13:54:13;15.80;58.60
7254;DHT22;4060;49.186;9.226;2023-04-25T13:56:43;15.80;58.60
7254;DHT22;4060;49.186;9.226;2023-04-25T13:59:13;15.80;58.50
7254;DHT22;4060;49.186;9.226;2023-04-25T14:01:42;15.80;58.30
7254;DHT22;4060;49.186;9.226;2023-04-25T14:04:15;15.90;58.10
7254;DHT22;4060;49.186;9.226;2023-04-25T14:06:45;15.90;58.00
7254;DHT22;4060;49.186;9.226;2023-04-25T14:09:14;15.90;57.90
7254;DHT22;4060;49.186;9.226;2023-04-25T14:11:44;15.90;57.90
7254;DHT22;4060;49.186;9.226;2023-04-25T14:14:14;15.90;57.80
7254;DHT22;4060;49.186;9.226;2023-04-25T14:16:43;15.90;57.60
7254;DHT22;4060;49.186;9.226;2023-04-25T14:19:17;15.90;57.40
7254;DHT22;4060;49.186;9.226;2023-04-25T14:21:47;15.90;57.10
7254;DHT22;4060;49.186;9.226;2023-04-25T14:24:17;15.90;57.00
7254;DHT22;4060;49.186;9.226;2023-04-25T14:26:47;16.00;57.10
7254;DHT22;4060;49.186;9.226;2023-04-25T14:29:17;16.00;57.10
7254;DHT22;4060;49.186;9.226;2023-04-25T14:31:46;16.00;57.00
7254;DHT22;4060;49.186;9.226;2023-04-25T14:34:18;16.00;56.90
7254;DHT22;4060;49.186;9.226;2023-04-25T14:36:47;16.00;56.80
7254;DHT22;4060;49.186;9.226;2023-04-25T14:39:17;16.10;56.80
7254;DHT22;4060;49.186;9.226;2023-04-25T14:41:47;16.10;56.70
7254;DHT22;4060;49.186;9.226;2023-04-25T14:44:17;16.10;56.50
7254;DHT22;4060;49.186;9.226;2023-04-25T14:46:46;16.10;56.30
7254;DHT22;4060;49.186;9.226;2023-04-25T14:49:20;16.10;56.40
7254;DHT22;4060;49.186;9.226;2023-04-25T14:51:50;16.20;56.40
7254;DHT22;4060;49.186;9.226;2023-04-25T14:54:19;16.20;56.30
7254;DHT22;4060;49.186;9.226;2023-04-25T14:56:49;16.20;56.10
7254;DHT22;4060;49.186;9.226;2023-04-25T14:59:19;16.20;55.90
7254;DHT22;4060;49.186;9.226;2023-04-25T15:01:48;16.20;55.80
7254;DHT22;4060;49.186;9.226;2023-04-25T15:04:20;16.20;55.90
7254;DHT22;4060;49.186;9.226;2023-04-25T15:06:50;16.30;55.90
7254;DHT22;4060;49.186;9.226;2023-04-25T15:09:26;16.30;55.70
7254;DHT22;4060;49.186;9.226;2023-04-25T15:11:56;16.30;55.70
7254;DHT22;4060;49.186;9.226;2023-04-25T15:14:26;16.30;55.70
7254;DHT22;4060;49.186;9.226;2023-04-25T15:16:56;16.30;55.70
7254;DHT22;4060;49.186;9.226;2023-04-25T15:19:28;16.30;55.70
7254;DHT22;4060;49.186;9.226;2023-04-25T15:21:58;16.30;55.60
7254;DHT22;4060;49.186;9.226;2023-04-25T15:24:30;16.30;55.50
7254;DHT22;4060;49.186;9.226;2023-04-25T15:26:59;16.30;55.50
7254;DHT22;4060;49.186;9.226;2023-04-25T15:29:30;16.30;55.40
7254;DHT22;4060;49.186;9.226;2023-04-25T15:32:00;16.30;55.40
7254;DHT22;4060;49.186;9.226;2023-04-25T15:34:31;16.40;55.30
7254;DHT22;4060;49.186;9.226;2023-04-25T15:37:00;16.30;55.10
7254;DHT22;4060;49.186;9.226;2023-04-25T15:39:30;16.40;55.20
7254;DHT22;4060;49.186;9.226;2023-04-25T15:42:00;16.40;55.20
7254;DHT22;4060;49.186;9.226;2023-04-25T15:44:30;16.40;55.10
7254;DHT22;4060;49.186;9.226;2023-04-25T15:47:00;16.40;55.00
7254;DHT22;4060;49.186;9.226;2023-04-25T15:49:31;16.40;55.00
7254;DHT22;4060;49.186;9.226;2023-04-25T15:52:01;16.40;54.90
7254;DHT22;4060;49.186;9.226;2023-04-25T15:54:30;16.40;54.90
7254;DHT22;4060;49.186;9.226;2023-04-25T15:57:00;16.40;54.80
7254;DHT22;4060;49.186;9.226;2023-04-25T15:59:30;16.40;54.70
7254;DHT22;4060;49.186;9.226;2023-04-25T16:01:59;16.40;54.70
7254;DHT22;4060;49.186;9.226;2023-04-25T16:04:30;16.40;54.70
7254;DHT22;4060;49.186;9.226;2023-04-25T16:07:01;16.40;54.60
7254;DHT22;4060;49.186;9.226;2023-04-25T16:09:31;16.40;54.50
7254;DHT22;4060;49.186;9.226;2023-04-25T16:12:02;16.40;54.50
7254;DHT22;4060;49.186;9.226;2023-04-25T16:14:33;16.40;54.50
7254;DHT22;4060;49.186;9.226;2023-04-25T16:17:03;16.40;54.50
7254;DHT22;4060;49.186;9.226;2023-04-25T16:19:36;16.40;54.40
7254;DHT22;4060;49.186;9.226;2023-04-25T16:22:06;16.40;54.40
7254;DHT22;4060;49.186;9.226;2023-04-25T16:24:37;16.40;54.40
7254;DHT22;4060;49.186;9.226;2023-04-25T16:27:07;16.40;54.40